Impacts TAF Board
For situational awareness. Not to be used for flight planning purposes.
IDs:

KGTR - Golden Triangle Arpt, MS, US

Issued at 1735 UTC 07 Dec 2021
Updated at 1911 UTC 07 Dec 2021
Potential Impact None Slight Moderate High
Time1856Z 07/20Z 07/21Z 07/22Z 07/23Z 08/00Z 08/01Z 08/02Z 08/03Z 08/04Z 08/05Z 08/06Z 08/07Z 08/08Z>>
Type OBS PRVL PRVL PRVL PRVL PRVL PRVL PRVL PRVL PRVL PRVL PRVL PRVL PRVL
VIS 10 >6 >6 >6 >6 >6 >6 >6 >6 >6 >6 >6 >6 >6
CIG 28 45 45 45 45 45 15 15 15 15 15 15 15 15
Cover OVC OVC OVC OVC OVC OVC OVC OVC OVC OVC OVC OVC OVC OVC
FltCat MVFR VFR VFR VFR VFR VFR MVFR MVFR MVFR MVFR MVFR MVFR MVFR MVFR
WX -- -- -- -- -- -- -- -- -- -- -- -- -- --
WDir 30 70 70 70 70 70 120 120 120 120 120 120 120 120
WSpd 7 5 5 5 5 5 3 3 3 3 3 3 3 3
WGst -- -- -- -- -- -- -- -- -- -- -- -- -- --
WSHgt -- -- -- -- -- -- -- -- -- -- -- -- -- --
WSDir -- -- -- -- -- -- -- -- -- -- -- -- -- --
WSSpd -- -- -- -- -- -- -- -- -- -- -- -- -- --
Raw TAF
KGTR 071735Z 0718/0818 07005KT P6SM OVC045
  FM080100 12003KT P6SM OVC015
  FM081000 34004KT P6SM OVC008
  FM081400 34004KT P6SM OVC020
  FM081600 34005KT P6SM SCT015


Raw METAR
KGTR 071856Z 03007KT 10SM OVC028 07/M01 A3012 RMK AO2 SLP210 T00721006 PNO $
KGTR 071842Z 06005KT 10SM OVC028 07/M01 A3012 RMK AO2 PNO $
KGTR 071756Z 03004KT 10SM OVC030 07/M01 A3015 RMK AO2 SLP219 6//// T00671011 10072 20033 58019 PNO $
KGTR 071656Z 07003KT 10SM OVC034 07/M02 A3019 RMK AO2 SLP232 T00671017 PNO $

METAR Board
Radar Display
Forecast Discussion
For situational awareness. Not to be used for flight planning purposes.